createdAt,value
2017-09-29T00:01:56.292Z,99631.41
2017-09-29T00:04:23.769Z,99640.42
2017-09-29T00:06:51.312Z,99639.81
2017-09-29T00:09:18.789Z,99635.51
2017-09-29T00:11:46.339Z,99645.48
2017-09-29T00:14:13.807Z,99649.66
2017-09-29T00:16:41.271Z,99647.08
2017-09-29T00:19:08.756Z,99644.56
2017-09-29T00:21:36.224Z,99638.16
2017-09-29T00:24:03.698Z,99635.92
2017-09-29T00:26:31.175Z,99637.40
2017-09-29T00:28:58.676Z,99634.73
2017-09-29T00:31:26.145Z,99631.69
2017-09-29T00:33:53.622Z,99633.83
2017-09-29T00:36:21.105Z,99632.07
2017-09-29T00:38:48.588Z,99628.00
2017-09-29T00:41:16.076Z,99632.07
2017-09-29T00:43:44.074Z,99630.35
2017-09-29T00:46:12.088Z,99633.94
2017-09-29T00:48:40.457Z,99629.67
2017-09-29T00:51:07.942Z,99626.27
2017-09-29T00:53:35.423Z,99632.25
2017-09-29T00:56:02.902Z,99623.19
2017-09-29T00:58:30.407Z,99618.35
2017-09-29T01:00:57.874Z,99626.00
2017-09-29T01:03:25.375Z,99624.93
2017-09-29T01:05:52.855Z,99625.84
2017-09-29T01:08:20.327Z,99620.35
2017-09-29T01:10:47.803Z,99615.20
2017-09-29T01:13:15.280Z,99619.84
2017-09-29T01:15:43.408Z,99609.11
2017-09-29T01:18:10.927Z,99608.55
2017-09-29T01:20:38.395Z,99610.72
2017-09-29T01:23:05.876Z,99610.95
2017-09-29T01:25:33.364Z,99603.95
2017-09-29T01:28:00.839Z,99608.78
2017-09-29T01:30:28.303Z,99609.20
2017-09-29T01:32:55.791Z,99613.69
2017-09-29T01:35:23.273Z,99612.62
2017-09-29T01:37:50.750Z,99610.63
2017-09-29T01:40:18.226Z,99604.05
2017-09-29T01:42:45.687Z,99607.97
2017-09-29T01:45:13.163Z,99616.34
2017-09-29T01:47:40.631Z,99614.63
2017-09-29T01:50:08.114Z,99612.95
2017-09-29T01:52:35.589Z,99609.63
2017-09-29T01:55:03.065Z,99605.94
2017-09-29T01:57:30.544Z,99604.04
2017-09-29T01:59:58.044Z,99600.38
2017-09-29T02:02:25.578Z,99594.12
2017-09-29T02:04:53.056Z,99589.98
2017-09-29T02:07:20.543Z,99588.00
2017-09-29T02:09:48.017Z,99584.64
2017-09-29T02:12:15.505Z,99588.06
2017-09-29T02:14:42.980Z,99580.48
2017-09-29T02:17:10.451Z,99581.80
2017-09-29T02:19:37.944Z,99582.53
2017-09-29T02:22:05.407Z,99583.13
2017-09-29T02:24:32.892Z,99579.45
2017-09-29T02:27:00.357Z,99581.20
2017-09-29T02:29:27.846Z,99579.87
2017-09-29T02:31:55.325Z,99588.38
2017-09-29T02:34:22.804Z,99585.12
2017-09-29T02:36:50.330Z,99594.92
2017-09-29T02:39:17.799Z,99592.01
2017-09-29T02:41:45.287Z,99596.27
2017-09-29T02:44:12.858Z,99601.97
2017-09-29T02:46:40.335Z,99597.99
2017-09-29T02:49:07.814Z,99595.00
2017-09-29T02:51:35.289Z,99599.58
2017-09-29T02:54:02.767Z,99598.14
2017-09-29T02:56:38.634Z,99593.39
2017-09-29T02:59:08.521Z,99595.17
2017-09-29T03:01:38.722Z,99588.16
2017-09-29T03:04:10.183Z,99587.41
2017-09-29T03:06:37.652Z,99594.23
2017-09-29T03:09:05.132Z,99596.52
2017-09-29T03:11:32.708Z,99595.86
2017-09-29T03:14:00.179Z,99596.70
2017-09-29T03:16:27.666Z,99593.86
2017-09-29T03:18:55.140Z,99597.14
2017-09-29T03:21:22.635Z,99593.23
2017-09-29T03:23:50.109Z,99590.56
2017-09-29T03:26:17.603Z,99585.17
2017-09-29T03:28:45.084Z,99593.49
2017-09-29T03:31:12.567Z,99588.91
2017-09-29T03:33:40.052Z,99586.02
2017-09-29T03:36:07.527Z,99586.83
2017-09-29T03:38:35.045Z,99582.76
2017-09-29T03:41:02.599Z,99585.50
2017-09-29T03:43:30.076Z,99594.66
2017-09-29T03:45:57.582Z,99599.00
2017-09-29T03:48:25.068Z,99596.58
2017-09-29T03:50:58.080Z,99595.05
2017-09-29T03:53:27.399Z,99588.58
2017-09-29T03:55:56.966Z,99587.59
2017-09-29T03:58:26.703Z,99587.91
2017-09-29T04:00:54.245Z,99587.68
2017-09-29T04:03:21.749Z,99582.67
2017-09-29T04:05:49.225Z,99581.61
2017-09-29T04:08:16.731Z,99586.26
2017-09-29T04:10:44.306Z,99583.94
2017-09-29T04:13:12.407Z,99582.84
2017-09-29T04:15:39.874Z,99584.03
2017-09-29T04:18:07.370Z,99579.13
2017-09-29T04:20:34.905Z,99577.69
2017-09-29T04:23:02.379Z,99575.37
2017-09-29T04:25:29.855Z,99586.36
2017-09-29T04:27:57.343Z,99585.11
2017-09-29T04:30:24.836Z,99589.52
2017-09-29T04:32:52.403Z,99594.77
2017-09-29T04:35:20.732Z,99587.20
2017-09-29T04:37:48.268Z,99586.59
2017-09-29T04:40:15.767Z,99594.51
2017-09-29T04:42:43.256Z,99595.34
2017-09-29T04:45:10.804Z,99597.24
2017-09-29T04:47:38.315Z,99590.28
2017-09-29T04:50:05.797Z,99585.45
2017-09-29T04:52:33.282Z,99588.42
2017-09-29T04:55:00.773Z,99591.69
2017-09-29T04:57:28.249Z,99580.69
2017-09-29T04:59:55.768Z,99587.77
2017-09-29T05:02:23.242Z,99590.35
2017-09-29T05:04:51.279Z,99594.84
2017-09-29T05:07:18.836Z,99590.01
2017-09-29T05:09:46.303Z,99595.52
2017-09-29T05:12:13.912Z,99599.16
2017-09-29T05:14:41.474Z,99598.50
2017-09-29T05:17:08.965Z,99601.47
2017-09-29T05:19:36.462Z,99605.56
2017-09-29T05:22:03.974Z,99615.02
2017-09-29T05:24:31.581Z,99621.59
2017-09-29T05:26:59.069Z,99616.94
2017-09-29T05:29:26.595Z,99616.59
2017-09-29T05:31:54.088Z,99607.28
2017-09-29T05:34:21.578Z,99611.17
2017-09-29T05:36:49.390Z,99609.50
2017-09-29T05:39:16.871Z,99607.95
2017-09-29T05:41:44.391Z,99605.30
2017-09-29T05:44:11.901Z,99603.13
2017-09-29T05:46:39.643Z,99606.47
2017-09-29T05:49:07.137Z,99608.53
2017-09-29T05:51:34.611Z,99605.37
2017-09-29T05:54:02.103Z,99606.05
2017-09-29T05:56:29.584Z,99601.97
2017-09-29T05:58:57.104Z,99605.47
2017-09-29T06:01:24.599Z,99608.62
2017-09-29T06:03:52.125Z,99606.05
2017-09-29T06:06:19.660Z,99605.37
2017-09-29T06:08:47.160Z,99607.89
2017-09-29T06:11:14.967Z,99607.14
2017-09-29T06:13:42.592Z,99606.96
2017-09-29T06:16:10.084Z,99608.91
2017-09-29T06:20:59.619Z,99612.55
2017-09-29T06:23:27.145Z,99613.55
2017-09-29T06:25:54.615Z,99621.55
2017-09-29T06:28:22.160Z,99622.14
2017-09-29T06:30:49.635Z,99618.72
2017-09-29T06:33:17.232Z,99608.27
2017-09-29T06:35:44.781Z,99610.48
2017-09-29T06:38:12.314Z,99608.70
2017-09-29T06:40:39.802Z,99610.05
2017-09-29T06:43:07.294Z,99607.78
2017-09-29T06:45:34.786Z,99610.94
2017-09-29T06:48:02.262Z,99616.28
2017-09-29T06:50:29.997Z,99610.61
2017-09-29T06:52:57.516Z,99620.86
2017-09-29T06:55:25.027Z,99622.69
2017-09-29T06:57:52.521Z,99629.93
2017-09-29T07:00:19.996Z,99628.00
2017-09-29T07:02:47.507Z,99633.25
2017-09-29T07:05:15.016Z,99631.60
2017-09-29T07:07:42.593Z,99626.51
2017-09-29T07:10:10.092Z,99618.59
2017-09-29T07:12:37.854Z,99620.66
2017-09-29T07:15:05.333Z,99630.64
2017-09-29T07:17:32.803Z,99624.75
2017-09-29T07:20:00.337Z,99621.05
2017-09-29T07:22:27.836Z,99635.80
2017-09-29T07:24:59.202Z,99633.40
2017-09-29T07:27:29.226Z,99636.78
2017-09-29T07:29:59.229Z,99635.87
2017-09-29T07:32:31.228Z,99632.63
2017-09-29T07:34:58.726Z,99637.36
2017-09-29T07:37:26.199Z,99642.05
2017-09-29T07:39:53.849Z,99638.47
2017-09-29T07:42:21.371Z,99637.44
2017-09-29T07:44:48.862Z,99638.93
2017-09-29T07:47:16.441Z,99638.62
2017-09-29T07:49:43.954Z,99636.03
2017-09-29T07:52:11.451Z,99637.33
2017-09-29T07:54:38.926Z,99636.83
2017-09-29T07:57:06.409Z,99639.57
2017-09-29T07:59:33.965Z,99643.18
2017-09-29T08:02:01.438Z,99646.84
2017-09-29T08:04:28.959Z,99651.83
2017-09-29T08:06:56.441Z,99646.88
2017-09-29T08:09:23.952Z,99648.47
2017-09-29T08:11:51.552Z,99644.99
2017-09-29T08:14:19.046Z,99642.66
2017-09-29T08:16:46.539Z,99641.47
2017-09-29T08:19:14.051Z,99641.18
2017-09-29T08:21:41.535Z,99644.06
2017-09-29T08:24:09.037Z,99638.28
2017-09-29T08:26:36.641Z,99637.45
2017-09-29T08:29:04.118Z,99628.14
2017-09-29T08:31:31.638Z,99631.80
2017-09-29T08:33:59.114Z,99634.20
2017-09-29T08:36:26.593Z,99632.06
2017-09-29T08:38:55.081Z,99627.92
2017-09-29T08:41:22.582Z,99627.73
2017-09-29T08:43:50.083Z,99632.58
2017-09-29T08:46:19.880Z,99635.77
2017-09-29T08:48:47.402Z,99625.25
2017-09-29T08:51:14.894Z,99626.28
2017-09-29T08:53:42.435Z,99631.19
2017-09-29T08:56:09.914Z,99624.90
2017-09-29T08:58:37.412Z,99627.48
2017-09-29T09:01:04.924Z,99623.95
2017-09-29T09:03:32.471Z,99618.36
2017-09-29T09:06:00.028Z,99616.65
2017-09-29T09:08:27.586Z,99618.34
2017-09-29T09:10:55.115Z,99622.63
2017-09-29T09:13:22.746Z,99617.77
2017-09-29T09:15:50.232Z,99618.98
2017-09-29T09:18:17.699Z,99615.52
2017-09-29T09:20:45.223Z,99617.61
2017-09-29T09:23:12.720Z,99612.31
2017-09-29T09:25:40.248Z,99609.72
2017-09-29T09:28:07.720Z,99606.00
2017-09-29T09:30:35.207Z,99605.34
2017-09-29T09:33:02.696Z,99599.08
2017-09-29T09:35:30.239Z,99591.47
2017-09-29T09:37:57.724Z,99594.48
2017-09-29T09:40:25.214Z,99584.73
2017-09-29T09:42:52.736Z,99583.85
2017-09-29T09:45:20.256Z,99581.00
2017-09-29T09:47:47.761Z,99573.81
2017-09-29T09:50:15.222Z,99579.18
2017-09-29T09:52:42.693Z,99584.32
2017-09-29T09:55:10.209Z,99577.98
2017-09-29T09:57:37.679Z,99580.73
2017-09-29T10:00:05.154Z,99574.30
2017-09-29T10:02:32.662Z,99570.78
2017-09-29T10:05:00.151Z,99575.05
2017-09-29T10:07:27.620Z,99566.13
2017-09-29T10:09:55.093Z,99566.07
2017-09-29T10:12:22.586Z,99564.19
2017-09-29T10:14:50.050Z,99569.95
2017-09-29T10:17:18.239Z,99564.97
2017-09-29T10:19:45.795Z,99562.83
2017-09-29T10:22:13.337Z,99554.66
2017-09-29T10:24:40.808Z,99556.73
2017-09-29T10:27:08.274Z,99549.02
2017-09-29T10:29:35.753Z,99544.50
2017-09-29T10:32:03.228Z,99553.20
2017-09-29T10:34:30.697Z,99548.03
2017-09-29T10:36:58.176Z,99547.83
2017-09-29T10:39:25.741Z,99547.83
2017-09-29T10:41:53.215Z,99546.38
2017-09-29T10:44:20.701Z,99535.37
2017-09-29T10:46:48.171Z,99536.55
2017-09-29T10:49:15.680Z,99522.85
2017-09-29T10:51:43.167Z,99526.56
2017-09-29T10:54:10.635Z,99517.83
2017-09-29T10:56:38.114Z,99518.73
2017-09-29T10:59:05.566Z,99513.37
2017-09-29T11:01:33.067Z,99512.60
2017-09-29T11:04:00.571Z,99508.23
2017-09-29T11:06:28.060Z,99512.22
2017-09-29T11:08:55.626Z,99508.74
2017-09-29T11:11:23.097Z,99511.25
2017-09-29T11:13:50.572Z,99510.72
2017-09-29T11:16:18.100Z,99502.38
2017-09-29T11:18:45.685Z,99495.66
2017-09-29T11:21:13.185Z,99487.42
2017-09-29T11:23:40.675Z,99497.31
2017-09-29T11:26:08.239Z,99495.79
2017-09-29T11:28:35.712Z,99485.50
2017-09-29T11:31:03.211Z,99487.98
2017-09-29T11:33:30.695Z,99492.05
2017-09-29T11:35:58.259Z,99490.41
2017-09-29T11:38:25.742Z,99488.51
2017-09-29T11:40:53.198Z,99490.97
2017-09-29T11:43:20.671Z,99482.94
2017-09-29T11:45:48.140Z,99480.80
2017-09-29T11:48:15.642Z,99474.45
2017-09-29T11:50:43.113Z,99477.71
2017-09-29T11:53:10.675Z,99479.52
2017-09-29T11:55:38.157Z,99476.20
2017-09-29T11:58:05.625Z,99466.33
2017-09-29T12:00:33.115Z,99469.18
2017-09-29T12:03:00.594Z,99464.96
2017-09-29T12:05:28.076Z,99463.41
2017-09-29T12:07:55.540Z,99459.44
2017-09-29T12:10:23.004Z,99458.23
2017-09-29T12:12:50.487Z,99452.78
2017-09-29T12:15:17.972Z,99453.60
2017-09-29T12:17:45.465Z,99450.84
2017-09-29T12:20:12.927Z,99447.70
2017-09-29T12:22:40.588Z,99448.05
2017-09-29T12:25:08.099Z,99439.27
2017-09-29T12:27:35.635Z,99436.20
2017-09-29T12:30:03.123Z,99436.66
2017-09-29T12:32:30.587Z,99436.09
2017-09-29T12:34:58.065Z,99430.25
2017-09-29T12:37:25.537Z,99422.84
2017-09-29T12:39:53.014Z,99422.76
2017-09-29T12:42:20.489Z,99426.17
2017-09-29T12:44:47.990Z,99419.69
2017-09-29T12:47:15.495Z,99417.73
2017-09-29T12:49:42.983Z,99418.34
2017-09-29T12:52:10.467Z,99417.03
2017-09-29T12:54:37.939Z,99418.28
2017-09-29T12:57:05.423Z,99415.17
2017-09-29T12:59:32.904Z,99418.00
2017-09-29T13:02:00.396Z,99415.75
2017-09-29T13:04:27.901Z,99405.82
2017-09-29T13:06:55.367Z,99399.32
2017-09-29T13:09:22.846Z,99396.11
2017-09-29T13:11:50.368Z,99397.77
2017-09-29T13:14:17.905Z,99399.70
2017-09-29T13:16:45.364Z,99401.23
2017-09-29T13:19:12.860Z,99399.22
2017-09-29T13:21:40.397Z,99397.97
2017-09-29T13:24:07.881Z,99391.56
2017-09-29T13:26:35.372Z,99391.48
2017-09-29T13:29:04.124Z,99388.33
2017-09-29T13:31:31.624Z,99391.42
2017-09-29T13:33:59.289Z,99390.23
2017-09-29T13:36:26.786Z,99385.23
2017-09-29T13:38:54.288Z,99389.05
2017-09-29T13:41:21.820Z,99388.06
2017-09-29T13:43:50.090Z,99386.66
2017-09-29T13:46:17.567Z,99394.03
2017-09-29T13:48:45.022Z,99388.01
2017-09-29T13:51:12.496Z,99379.20
2017-09-29T13:53:40.033Z,99386.14
2017-09-29T13:56:07.509Z,99378.63
2017-09-29T13:58:34.978Z,99377.16
2017-09-29T14:01:02.446Z,99375.84
2017-09-29T14:03:29.941Z,99375.63
2017-09-29T14:05:57.416Z,99377.53
2017-09-29T14:08:24.900Z,99375.43
2017-09-29T14:10:52.472Z,99372.97
2017-09-29T14:13:20.055Z,99369.41
2017-09-29T14:15:47.561Z,99375.17
2017-09-29T14:18:15.030Z,99369.51
2017-09-29T14:20:42.515Z,99369.11
2017-09-29T14:23:09.995Z,99363.98
2017-09-29T14:25:37.462Z,99363.17
2017-09-29T14:28:04.958Z,99363.52
2017-09-29T14:30:32.538Z,99354.34
2017-09-29T14:33:00.047Z,99354.94
2017-09-29T14:35:27.553Z,99349.66
2017-09-29T14:37:55.151Z,99337.02
2017-09-29T14:40:22.651Z,99346.55
2017-09-29T14:42:50.132Z,99344.45
2017-09-29T14:45:17.622Z,99343.83
2017-09-29T14:47:45.141Z,99339.53
2017-09-29T14:50:12.637Z,99338.00
2017-09-29T14:52:40.112Z,99331.47
2017-09-29T14:55:07.670Z,99335.18
2017-09-29T14:57:35.326Z,99335.73
2017-09-29T15:00:02.780Z,99336.75
2017-09-29T15:02:30.312Z,99344.02
2017-09-29T15:04:58.205Z,99339.92
2017-09-29T15:07:25.677Z,99338.23
2017-09-29T15:09:53.155Z,99340.98
2017-09-29T15:12:20.628Z,99339.67
2017-09-29T15:14:48.136Z,99342.59
2017-09-29T15:17:15.609Z,99341.10
2017-09-29T15:19:43.122Z,99342.50
2017-09-29T15:22:10.688Z,99344.05
2017-09-29T15:24:38.172Z,99346.22
2017-09-29T15:27:05.671Z,99346.41
2017-09-29T15:29:33.158Z,99348.31
2017-09-29T15:32:00.650Z,99343.39
2017-09-29T15:34:28.100Z,99339.70
2017-09-29T15:36:55.703Z,99341.69
2017-09-29T15:39:23.284Z,99344.48
2017-09-29T15:41:50.849Z,99347.89
2017-09-29T15:44:18.345Z,99349.88
2017-09-29T15:46:45.874Z,99341.73
2017-09-29T15:49:14.003Z,99348.64
2017-09-29T15:51:41.499Z,99341.73
2017-09-29T15:54:08.980Z,99337.71
2017-09-29T15:56:36.452Z,99338.74
2017-09-29T15:59:03.929Z,99336.16
2017-09-29T16:01:31.452Z,99334.94
2017-09-29T16:03:58.949Z,99338.84
2017-09-29T16:06:26.423Z,99337.71
2017-09-29T16:08:54.924Z,99331.92
2017-09-29T16:11:23.209Z,99336.56
2017-09-29T16:13:50.974Z,99336.01
2017-09-29T16:16:18.504Z,99335.62
2017-09-29T16:18:46.107Z,99328.27
2017-09-29T16:21:13.594Z,99330.52
2017-09-29T16:23:41.059Z,99331.25
2017-09-29T16:26:08.551Z,99330.22
2017-09-29T16:28:36.022Z,99330.83
2017-09-29T16:31:03.559Z,99331.23
2017-09-29T16:33:31.050Z,99331.22
2017-09-29T16:35:58.576Z,99324.73
2017-09-29T16:38:26.087Z,99323.88
2017-09-29T16:40:53.550Z,99325.81
2017-09-29T16:43:21.363Z,99322.70
2017-09-29T16:45:48.816Z,99326.61
2017-09-29T16:48:16.650Z,99319.80
2017-09-29T16:50:44.134Z,99323.41
2017-09-29T16:53:11.618Z,99323.80
2017-09-29T16:55:39.106Z,99319.73
2017-09-29T16:58:06.587Z,99320.95
2017-09-29T17:00:34.059Z,99324.84
2017-09-29T17:03:01.550Z,99322.34
2017-09-29T17:05:29.302Z,99320.29
2017-09-29T17:07:56.879Z,99320.02
2017-09-29T17:10:24.357Z,99319.06
2017-09-29T17:12:51.858Z,99322.94
2017-09-29T17:15:19.347Z,99329.00
2017-09-29T17:17:46.836Z,99323.20
2017-09-29T17:20:14.333Z,99327.30
2017-09-29T17:22:41.810Z,99333.45
2017-09-29T17:25:09.307Z,99337.83
2017-09-29T17:27:36.755Z,99333.45
2017-09-29T17:30:04.727Z,99333.13
2017-09-29T17:32:32.231Z,99325.16
2017-09-29T17:34:59.973Z,99325.22
2017-09-29T17:37:27.512Z,99323.44
2017-09-29T17:39:54.971Z,99319.40
2017-09-29T17:42:22.441Z,99322.58
2017-09-29T17:44:49.974Z,99314.45
2017-09-29T17:47:17.498Z,99315.83
2017-09-29T17:49:44.960Z,99317.00
2017-09-29T17:52:12.447Z,99320.06
2017-09-29T17:54:39.986Z,99317.88
2017-09-29T17:57:07.478Z,99319.51
2017-09-29T17:59:35.001Z,99317.22
2017-09-29T18:02:02.484Z,99313.50
2017-09-29T18:04:29.985Z,99313.50
2017-09-29T18:06:57.455Z,99317.22
2017-09-29T18:09:24.998Z,99314.72
2017-09-29T18:11:52.488Z,99313.70
2017-09-29T18:14:20.342Z,99315.97
2017-09-29T18:16:47.845Z,99311.45
2017-09-29T18:19:15.532Z,99315.80
2017-09-29T18:21:43.127Z,99312.77
2017-09-29T18:24:10.596Z,99318.83
2017-09-29T18:26:38.091Z,99309.52
2017-09-29T18:29:05.581Z,99309.28
2017-09-29T18:31:33.076Z,99315.27
2017-09-29T18:34:00.586Z,99317.28
2017-09-29T18:36:28.167Z,99314.46
2017-09-29T18:38:55.629Z,99316.22
2017-09-29T18:44:30.933Z,99316.01
2017-09-29T18:47:00.238Z,99314.22
2017-09-29T18:49:27.703Z,99313.63
2017-09-29T18:51:55.198Z,99312.17
2017-09-29T18:54:22.707Z,99310.59
2017-09-29T18:56:50.191Z,99313.80
2017-09-29T18:59:17.688Z,99307.98
2017-09-29T19:01:45.161Z,99307.20
2017-09-29T19:04:12.634Z,99305.24
2017-09-29T19:06:40.128Z,99308.77
2017-09-29T19:09:07.591Z,99313.91
2017-09-29T19:11:35.078Z,99322.69
2017-09-29T19:14:02.588Z,99315.55
2017-09-29T19:16:30.057Z,99320.72
2017-09-29T19:18:57.532Z,99312.78
2017-09-29T19:21:25.129Z,99314.92
2017-09-29T19:23:52.665Z,99320.09
2017-09-29T19:26:20.158Z,99320.59
2017-09-29T19:28:47.692Z,99316.59
2017-09-29T19:31:15.172Z,99313.61
2017-09-29T19:33:42.644Z,99312.60
2017-09-29T19:36:10.122Z,99310.76
2017-09-29T19:38:37.630Z,99307.84
2017-09-29T19:41:05.105Z,99310.57
2017-09-29T19:43:32.603Z,99307.95
2017-09-29T19:46:00.067Z,99310.87
2017-09-29T19:48:27.603Z,99306.23
2017-09-29T19:50:55.071Z,99303.22
2017-09-29T19:53:22.559Z,99304.39
2017-09-29T19:55:50.016Z,99311.95
2017-09-29T19:58:17.477Z,99310.62
2017-09-29T20:00:45.039Z,99307.49
2017-09-29T20:03:12.582Z,99306.66
2017-09-29T20:05:40.074Z,99307.53
2017-09-29T20:08:07.540Z,99304.69
2017-09-29T20:10:35.052Z,99303.94
2017-09-29T20:13:02.563Z,99310.06
2017-09-29T20:15:30.036Z,99316.51
2017-09-29T20:17:57.530Z,99320.16
2017-09-29T20:20:24.997Z,99315.02
2017-09-29T20:22:52.490Z,99314.89
2017-09-29T20:25:19.974Z,99315.06
2017-09-29T20:27:47.439Z,99319.78
2017-09-29T20:30:14.908Z,99312.17
2017-09-29T20:32:42.378Z,99306.09
2017-09-29T20:35:09.935Z,99307.13
2017-09-29T20:37:37.400Z,99303.88
2017-09-29T20:40:04.886Z,99312.06
2017-09-29T20:42:32.365Z,99318.42
2017-09-29T20:44:59.840Z,99318.42
2017-09-29T20:47:27.340Z,99319.84
2017-09-29T20:49:54.820Z,99311.36
2017-09-29T20:52:22.650Z,99317.47
2017-09-29T20:54:50.170Z,99309.78
2017-09-29T20:57:17.664Z,99312.03
2017-09-29T20:59:45.186Z,99313.66
2017-09-29T21:02:12.662Z,99300.93
2017-09-29T21:04:40.127Z,99299.09
2017-09-29T21:07:07.618Z,99300.52
2017-09-29T21:09:35.092Z,99305.86
2017-09-29T21:12:02.570Z,99298.97
2017-09-29T21:14:30.072Z,99295.38
2017-09-29T21:16:57.645Z,99293.30
2017-09-29T21:19:25.315Z,99294.00
2017-09-29T21:21:52.775Z,99291.50
2017-09-29T21:24:20.259Z,99285.86
2017-09-29T21:26:47.767Z,99280.77
2017-09-29T21:29:15.328Z,99279.31
2017-09-29T21:31:42.811Z,99278.27
2017-09-29T21:34:10.278Z,99275.31
2017-09-29T21:36:37.773Z,99287.78
2017-09-29T21:39:05.248Z,99284.53
2017-09-29T21:41:32.741Z,99283.23
2017-09-29T21:44:00.269Z,99277.77
2017-09-29T21:46:27.740Z,99281.78
2017-09-29T21:48:55.210Z,99283.16
2017-09-29T21:51:22.747Z,99272.52
2017-09-29T21:53:50.219Z,99272.89
2017-09-29T21:56:17.689Z,99271.88
2017-09-29T21:58:45.170Z,99272.34
2017-09-29T22:01:12.650Z,99268.70
2017-09-29T22:03:40.243Z,99271.11
2017-09-29T22:06:07.708Z,99271.90
2017-09-29T22:08:35.192Z,99278.28
2017-09-29T22:11:02.664Z,99277.52
2017-09-29T22:13:30.136Z,99276.95
2017-09-29T22:15:57.607Z,99269.86
2017-09-29T22:18:25.062Z,99268.67
2017-09-29T22:20:52.635Z,99264.37
2017-09-29T22:23:20.090Z,99261.98
2017-09-29T22:25:47.573Z,99265.73
2017-09-29T22:28:15.040Z,99258.30
2017-09-29T22:30:42.582Z,99254.05
2017-09-29T22:33:10.051Z,99255.94
2017-09-29T22:35:37.593Z,99249.92
2017-09-29T22:38:05.155Z,99251.50
2017-09-29T22:40:32.627Z,99243.78
2017-09-29T22:43:00.155Z,99237.70
2017-09-29T22:45:27.649Z,99235.70
2017-09-29T22:47:55.148Z,99237.61
2017-09-29T22:50:22.653Z,99234.23
2017-09-29T22:52:50.190Z,99226.64
2017-09-29T22:55:17.662Z,99228.89
2017-09-29T22:57:45.509Z,99229.11
2017-09-29T23:00:12.987Z,99225.45
2017-09-29T23:02:40.491Z,99227.14
2017-09-29T23:05:08.001Z,99219.28
2017-09-29T23:07:35.463Z,99213.73
2017-09-29T23:10:02.960Z,99212.28
2017-09-29T23:12:30.463Z,99207.14
2017-09-29T23:14:57.953Z,99200.89
2017-09-29T23:17:25.497Z,99207.36
2017-09-29T23:19:52.962Z,99208.81
2017-09-29T23:22:20.494Z,99203.86
2017-09-29T23:24:47.954Z,99194.03
2017-09-29T23:27:15.504Z,99192.28
2017-09-29T23:29:42.979Z,99191.06
2017-09-29T23:32:11.349Z,99189.48
2017-09-29T23:34:38.823Z,99188.23
2017-09-29T23:37:06.294Z,99190.89
2017-09-29T23:39:33.775Z,99183.59
2017-09-29T23:42:01.240Z,99184.30
2017-09-29T23:44:28.710Z,99184.66
2017-09-29T23:46:56.208Z,99180.27
2017-09-29T23:49:23.699Z,99182.84
2017-09-29T23:51:51.174Z,99175.12
2017-09-29T23:54:18.651Z,99173.03
2017-09-29T23:56:46.120Z,99168.63
2017-09-29T23:59:13.588Z,99173.23
